Terminal Aerodrome Forecast
Issued by NWS

Home | Current Version | Previous Version | Graphics & Text | Print | Product List | Glossary On
Versions: 1 2 3 4 5 6 7 8 9 10 11 12 13 14 15 16 17 18
000
FTUS43 KTOP 191400 AAA
TAFMHK
TAF AMD
KMHK 191401Z 1914/2012 VRB02KT 5SM BR OVC005
     FM191600 15005KT 6SM BR OVC008
     FM191800 19005KT 6SM BR OVC015
     FM200300 19003KT 5SM BR OVC009=

USA.gov is the U.S. government's official web portal to all federal, state and local government web resources and services.